EGBB/BHX METAR and TAF weather

Enter ICAO airport designator
Station Type Date Time Source
EGBB METAR 2020/09/25 18:20 UTC NOAA

EGBB 251820Z 31015KT CAVOK 12/04 Q1009


Station Type Date Time Source
EGBB Decoded METAR 2020/09/25 18:20 UTC NOAA

Birmingham / Airport, United Kingdom (EGBB) 52-27N 001-44W 0M
Sep 25, 2020 - 02:20 PM EDT / 2020.09.25 1820 UTC
Wind: from the NW (310 degrees) at 17 MPH (15 KT):0
Visibility: greater than 7 mile(s):0
Temperature: 53 F (12 C)
Dew Point: 39 F (4 C)
Relative Humidity: 57%
Pressure (altimeter): 29.80 in. Hg (1009 hPa)
ob: EGBB 251820Z 31015KT CAVOK 12/04 Q1009
cycle: 18

Station Type Date Time Source
EGBB TAF 2020/09/25 18:09 UTC NOAA

TAF EGBB 251652Z 2518/2618 32020G30KT 9999 SCT040
BECMG 2518/2521 33012KT
TEMPO 2609/2618 33015G25KT

Example: see airport list